Sim-Planet VA

Sim-Planet Nouvel Horizon. By: Anthony Pay
Since 2020.




 METAR ET TAF INFORMATION
METAR FOR EGLC
ADDS - METARS form results

(2104 UTC 28 January 2022)
Data provider http://aviationweather.gov/metar/data/
 
METAR text: EGLC 282050Z AUTO 24011KT 9999 OVC012 09/06 Q1031
Conditions at: EGLC (LONDON CITY AIRP, GB) observed 2050 UTC 28 January 2022
Temperature: 9.0°C (48°F)
Dewpoint: 6.0°C (43°F) [RH = 81%]
Pressure (altimeter): 30.44 inches Hg (1031.0 mb)
Winds: from the WSW (240 degrees) at 13 MPH (11 knots; 5.7 m/s)
Visibility: 6 or more miles (10+ km)
Ceiling: 1200 feet AGL
Clouds: overcast cloud deck at 1200 feet AGL
Weather: no significant weather observed at this time

METAR text: EGLC 282020Z AUTO 24010KT 9999 OVC012 09/06 Q1031
Conditions at: EGLC (LONDON CITY AIRP, GB) observed 2020 UTC 28 January 2022
Temperature: 9.0°C (48°F)
Dewpoint: 6.0°C (43°F) [RH = 81%]
Pressure (altimeter): 30.44 inches Hg (1031.0 mb)
Winds: from the WSW (240 degrees) at 12 MPH (10 knots; 5.1 m/s)
Visibility: 6 or more miles (10+ km)
Ceiling: 1200 feet AGL
Clouds: overcast cloud deck at 1200 feet AGL
Weather: no significant weather observed at this time

Forecast for: EGLC (LONDON CITY AIRP, GB)
Text: TAF EGLC 281702Z 2818/2822 25008KT 9999 SCT020
Forecast period: 1800 to 2200 UTC 28 January 2022
Forecast type: FROM: standard forecast or significant change
Winds: from the WSW (250 degrees) at 9 MPH (8 knots; 4.1 m/s)
Visibility: 6 or more miles (10+ km)
Ceiling: at least 12,000 feet AGL
Clouds: scattered clouds at 2000 feet AGL
Weather: no significant weather forecast for this period
Text: TEMPO 2818/2822 BKN010
Forecast period: 1800 to 2200 UTC 28 January 2022
Forecast type: TEMPORARY: The following changes expected for less than half the time period
Visibility: missing
Ceiling: 1000 feet AGL
Clouds: broken clouds at 1000 feet AGL
Weather: no significant weather forecast for this period
Text: PROB40
Forecast period: 2000 to 2200 UTC 28 January 2022
Forecast type: TEMPORARY: The following changes expected for less than half the time period
Visibility: 2.49 miles (4.01 km)
Ceiling: 700 feet AGL
Clouds: broken clouds at 700 feet AGL
Weather: -RA -DZ  (light rain, light drizzle)

 AÉROPORT DE AÉROPORT

 INFORMATIONS DE PISTE
Piste 10 Longueur de la piste 4948 ft Largeur de la piste 98 ft
Élévation de la piste 16 ft Seuil de la piste déplacés 358 ft Runway heading 93
Piste 28 Longueur de la piste 4948 ft Largeur de la piste 98 ft
Élévation de la piste 19 ft Seuil de la piste déplacés 211 ft Runway heading 273

 AÉROPORT FRÉQUENCES
Type APP Nom APP Féquence 132.7 MHZ
Type ATIS Nom ATIS Féquence 136.35 MHZ
Type GND Nom GND Féquence 121.825 MHZ
Type TWR Nom TWR Féquence 118.075 MHZ

 SIDA DE NAVIGATION
Type NDB Nom City Féquence 322 KHZ

Nos Partenaires